No particular awareness of the weather is required.    There are no Weather-warnings


Meteo18 Weather Cam more information Meteo18 Weather Cam


Thunder radar more information blitzortung!


Rain radar more information rain snow radar


Visit our other weather sites:

Template documentation
and downloads

And another site



Weather Underground History page Text

Daily Summary for January 30, 2018 Units:  English    Metric   Both
« Previous Day
Next Day »
Daily Weekly Monthly Yearly Custom
  High: Low: Average:
Temperature: TemperatureC °F 7.2 °F 8.4 °F
Dew Point: DewpointC °F 6.9 °F 7.6 °F
Humidity: Humidity % 90 % 95 %
Wind Speed: WindSpeedKMH mph 0.0 mph 2.3 mph
Wind Gust: WindSpeedGustKMH mph - -
Wind:- - WSW
Pressure: PressurehPa in 1026.6 in -
Precipitation: 0.0 in    
Historical Graphs
 
 
Tabular Data for January 30, 2018
Time Temperature Dew Point Pressure Wind Wind Speed Wind Gust Humidity Rainfall Rate (Hourly)
TemperatureC °F DewpointC °F PressurehPa in Calm     Humidity % HourlyPrecipMM in
00:03 7.9 °F 7.3 °F 1033.7 in West 3.2 mph 4.8 mph 96 % 0.0 in
00:09 7.9 °F 7.5 °F 1033.7 in Calm   1.6 mph 97 % 0.0 in
00:15 8.0 °F 7.6 °F 1033.7 in West 1.4 mph 1.6 mph 97 % 0.0 in
00:21 8.1 °F 7.5 °F 1033.7 in Calm   3.2 mph 96 % 0.0 in
00:27 8.1 °F 7.5 °F 1033.7 in WSW 1.4 mph 1.6 mph 96 % 0.0 in
00:33 8.2 °F 7.6 °F 1033.7 in WSW 1.4 mph 1.6 mph 96 % 0.0 in
00:39 8.2 °F 7.6 °F 1033.4 in WSW 1.4 mph 3.2 mph 96 % 0.0 in
00:45 8.2 °F 7.6 °F 1033.7 in WSW 1.4 mph 3.2 mph 96 % 0.0 in
00:51 8.2 °F 7.6 °F 1033.4 in West 1.4 mph 3.2 mph 96 % 0.0 in
00:57 8.2 °F 7.6 °F 1033.4 in Calm   1.6 mph 96 % 0.0 in
01:03 8.1 °F 7.5 °F 1033.4 in SW 1.4 mph 3.2 mph 96 % 0.0 in
01:09 8.1 °F 7.5 °F 1033.4 in Calm     96 % 0.0 in
01:15 7.9 °F 7.3 °F 1033.4 in Calm   1.6 mph 96 % 0.0 in
01:21 7.9 °F 7.3 °F 1033.4 in Calm     96 % 0.0 in
01:27 7.8 °F 7.2 °F 1033.4 in Calm     96 % 0.0 in
01:33 7.8 °F 7.2 °F 1033.1 in SSW 1.4 mph 3.2 mph 96 % 0.0 in
01:39 7.8 °F 7.4 °F 1033.1 in Calm   1.6 mph 97 % 0.0 in
01:45 7.8 °F 7.4 °F 1033.1 in Calm   1.6 mph 97 % 0.0 in
01:52 7.8 °F 7.4 °F 1033.1 in SW 1.4 mph 1.6 mph 97 % 0.0 in
01:58 7.8 °F 7.4 °F 1033.1 in Calm   1.6 mph 97 % 0.0 in
02:04 7.7 °F 7.3 °F 1033.1 in Calm   1.6 mph 97 % 0.0 in
02:10 7.7 °F 7.3 °F 1033.1 in Calm     97 % 0.0 in
02:16 7.7 °F 7.3 °F 1033.1 in Calm     97 % 0.0 in
02:22 7.7 °F 7.3 °F 1033.1 in Calm     97 % 0.0 in
02:28 7.7 °F 7.3 °F 1033.1 in Calm     97 % 0.0 in
02:34 7.7 °F 7.3 °F 1033.1 in Calm   1.6 mph 97 % 0.0 in
02:40 7.6 °F 7.2 °F 1033.1 in Calm     97 % 0.0 in
02:46 7.6 °F 7.2 °F 1033.1 in Calm     97 % 0.0 in
02:52 7.6 °F 7.2 °F 1033.1 in Calm   1.6 mph 97 % 0.0 in
02:58 7.7 °F 7.3 °F 1033.1 in Calm   1.6 mph 97 % 0.0 in
03:04 7.7 °F 7.3 °F 1033.1 in Calm   1.6 mph 97 % 0.0 in
03:10 7.7 °F 7.3 °F 1033.1 in Calm     97 % 0.0 in
03:16 7.6 °F 7.2 °F 1033.1 in Calm     97 % 0.0 in
03:22 7.6 °F 7.2 °F 1032.7 in Calm     97 % 0.0 in
03:28 7.6 °F 7.2 °F 1032.7 in Calm     97 % 0.0 in
03:34 7.6 °F 7.2 °F 1032.7 in Calm     97 % 0.0 in
03:40 7.6 °F 7.3 °F 1032.7 in Calm     98 % 0.0 in
03:46 7.6 °F 7.3 °F 1032.7 in Calm     98 % 0.0 in
03:52 7.5 °F 7.1 °F 1032.7 in Calm     97 % 0.0 in
03:58 7.5 °F 7.2 °F 1032.7 in Calm     98 % 0.0 in
04:04 7.5 °F 7.2 °F 1032.7 in Calm     98 % 0.0 in
04:10 7.5 °F 7.2 °F 1032.7 in Calm     98 % 0.0 in
04:16 7.5 °F 7.2 °F 1032.4 in Calm     98 % 0.0 in
04:22 7.5 °F 7.2 °F 1032.4 in Calm     98 % 0.0 in
04:28 7.4 °F 7.1 °F 1032.4 in Calm     98 % 0.0 in
04:34 7.5 °F 7.2 °F 1032.4 in Calm     98 % 0.0 in
04:40 7.4 °F 7.1 °F 1032.4 in Calm     98 % 0.0 in
04:46 7.4 °F 7.1 °F 1032.4 in Calm     98 % 0.0 in
04:52 7.4 °F 7.1 °F 1032.4 in Calm     98 % 0.0 in
04:58 7.3 °F 7.0 °F 1032.4 in Calm     98 % 0.0 in
05:05 7.3 °F 7.0 °F 1032.4 in Calm     98 % 0.0 in
05:11 7.3 °F 7.0 °F 1032.4 in Calm     98 % 0.0 in
05:17 7.4 °F 7.1 °F 1032.4 in Calm     98 % 0.0 in
05:23 7.4 °F 7.1 °F 1032.4 in Calm     98 % 0.0 in
05:29 7.4 °F 7.1 °F 1032.4 in Calm     98 % 0.0 in
05:35 7.4 °F 7.1 °F 1032.4 in Calm     98 % 0.0 in
05:41 7.4 °F 7.1 °F 1032.4 in Calm     98 % 0.0 in
05:47 7.4 °F 7.1 °F 1032.4 in Calm     98 % 0.0 in
05:53 7.4 °F 7.1 °F 1032.4 in Calm     98 % 0.0 in
05:59 7.4 °F 7.1 °F 1032.4 in Calm     98 % 0.0 in
06:05 7.5 °F 7.2 °F 1032.4 in Calm     98 % 0.0 in
06:11 7.4 °F 7.1 °F 1032.4 in Calm     98 % 0.0 in
06:17 7.4 °F 7.1 °F 1032.4 in Calm     98 % 0.0 in
06:23 7.5 °F 7.2 °F 1032.4 in Calm     98 % 0.0 in
06:29 7.5 °F 7.2 °F 1032.4 in Calm     98 % 0.0 in
06:35 7.4 °F 7.1 °F 1032.4 in Calm     98 % 0.0 in
06:41 7.4 °F 7.1 °F 1032.1 in Calm     98 % 0.0 in
06:47 7.4 °F 7.1 °F 1032.4 in Calm     98 % 0.0 in
06:53 7.3 °F 7.0 °F 1032.4 in Calm     98 % 0.0 in
06:59 7.3 °F 7.0 °F 1032.4 in Calm     98 % 0.0 in
07:05 7.4 °F 7.1 °F 1032.4 in Calm     98 % 0.0 in
07:12 7.4 °F 7.1 °F 1032.1 in Calm     98 % 0.0 in
07:18 7.4 °F 7.1 °F 1032.4 in Calm     98 % 0.0 in
07:24 7.3 °F 7.0 °F 1032.1 in Calm     98 % 0.0 in
07:30 7.3 °F 7.0 °F 1032.1 in Calm     98 % 0.0 in
07:36 7.3 °F 7.0 °F 1032.1 in Calm   1.6 mph 98 % 0.0 in
07:42 7.2 °F 6.9 °F 1032.1 in Calm     98 % 0.0 in
07:48 7.2 °F 6.9 °F 1032.1 in Calm     98 % 0.0 in
07:54 7.2 °F 6.9 °F 1032.1 in Calm     98 % 0.0 in
08:00 7.2 °F 6.9 °F 1032.1 in Calm     98 % 0.0 in
08:06 7.3 °F 7.0 °F 1032.1 in Calm     98 % 0.0 in
08:12 7.3 °F 7.0 °F 1032.1 in Calm     98 % 0.0 in
08:18 7.3 °F 7.0 °F 1032.4 in Calm     98 % 0.0 in
08:24 7.3 °F 7.0 °F 1032.4 in Calm     98 % 0.0 in
08:30 7.3 °F 7.0 °F 1032.4 in Calm     98 % 0.0 in
08:36 7.3 °F 7.0 °F 1032.4 in Calm     98 % 0.0 in
08:42 7.2 °F 6.9 °F 1032.1 in Calm     98 % 0.0 in
08:48 7.2 °F 6.9 °F 1032.1 in Calm     98 % 0.0 in
08:55 7.2 °F 6.9 °F 1032.1 in Calm     98 % 0.0 in
09:01 7.3 °F 7.0 °F 1032.4 in Calm     98 % 0.0 in
09:07 7.3 °F 7.0 °F 1032.1 in Calm     98 % 0.0 in
09:13 7.4 °F 7.1 °F 1032.1 in Calm     98 % 0.0 in
09:19 7.4 °F 7.1 °F 1032.1 in Calm     98 % 0.0 in
09:25 7.5 °F 7.2 °F 1032.4 in Calm     98 % 0.0 in
09:31 7.6 °F 7.3 °F 1032.1 in Calm     98 % 0.0 in
09:37 7.7 °F 7.4 °F 1032.1 in Calm     98 % 0.0 in
09:43 7.7 °F 7.4 °F 1032.1 in Calm     98 % 0.0 in
09:49 7.8 °F 7.5 °F 1032.1 in SSE 1.4 mph 1.6 mph 98 % 0.0 in
09:55 7.9 °F 7.6 °F 1032.1 in SSW 1.4 mph 1.6 mph 98 % 0.0 in
10:01 8.0 °F 7.7 °F 1032.1 in SSW 1.4 mph 3.2 mph 98 % 0.0 in
10:07 7.9 °F 7.6 °F 1032.1 in SSW 1.4 mph 4.8 mph 98 % 0.0 in
10:13 8.0 °F 7.7 °F 1032.1 in SW 3.2 mph 3.2 mph 98 % 0.0 in
10:19 8.1 °F 7.8 °F 1032.1 in SSW 3.2 mph 3.2 mph 98 % 0.0 in
10:25 8.2 °F 7.9 °F 1032.1 in SW 3.2 mph 4.8 mph 98 % 0.0 in
10:31 8.2 °F 7.9 °F 1032.1 in SSW 3.2 mph 6.4 mph 98 % 0.0 in
10:37 8.2 °F 7.9 °F 1032.1 in SSW 3.2 mph 8.0 mph 98 % 0.0 in
10:43 8.3 °F 8.0 °F 1032.1 in SW 4.7 mph 8.0 mph 98 % 0.0 in
10:49 8.3 °F 8.0 °F 1032.1 in SW 6.4 mph 8.0 mph 98 % 0.0 in
10:55 8.2 °F 7.9 °F 1032.1 in SW 7.9 mph 8.0 mph 98 % 0.0 in
11:01 8.3 °F 8.0 °F 1032.1 in SSW 3.2 mph 6.4 mph 98 % 0.0 in
11:07 8.4 °F 8.1 °F 1032.1 in SW 6.4 mph 8.0 mph 98 % 0.0 in
11:13 8.5 °F 8.2 °F 1032.1 in SSW 6.4 mph 8.0 mph 98 % 0.0 in
11:19 8.7 °F 8.4 °F 1032.1 in SSW 3.2 mph 6.4 mph 98 % 0.0 in
11:25 8.7 °F 8.3 °F 1032.1 in SW 4.7 mph 6.4 mph 97 % 0.0 in
11:31 8.7 °F 8.3 °F 1032.1 in SSW 6.4 mph 8.0 mph 97 % 0.0 in
11:37 8.8 °F 8.3 °F 1032.1 in SW 7.9 mph 8.0 mph 97 % 0.0 in
11:43 8.9 °F 8.4 °F 1031.7 in SSW 7.9 mph 8.0 mph 97 % 0.0 in
11:49 8.9 °F 8.3 °F 1031.7 in SSW 3.2 mph 8.0 mph 96 % 0.0 in
11:55 9.0 °F 8.4 °F 1031.7 in SW 7.9 mph 9.7 mph 96 % 0.0 in
12:01 9.0 °F 8.2 °F 1031.7 in WSW 11.1 mph 11.3 mph 95 % 0.0 in
12:07 9.1 °F 8.3 °F 1031.7 in WSW 3.2 mph 6.4 mph 95 % 0.0 in
12:13 9.2 °F 8.3 °F 1031.7 in SW 1.4 mph 6.4 mph 94 % 0.0 in
12:19 9.3 °F 8.5 °F 1031.4 in WNW 3.2 mph 3.2 mph 95 % 0.0 in
12:25 9.5 °F 8.6 °F 1031.4 in SSW 1.4 mph 4.8 mph 94 % 0.0 in
12:31 9.4 °F 8.2 °F 1031.4 in West 3.2 mph 11.3 mph 92 % 0.0 in
12:37 9.6 °F 8.5 °F 1031.0 in WSW 7.9 mph 8.0 mph 93 % 0.0 in
12:43 9.6 °F 8.4 °F 1031.0 in West 9.7 mph 11.3 mph 92 % 0.0 in
12:49 9.5 °F 8.1 °F 1031.0 in SW 6.4 mph 11.3 mph 91 % 0.0 in
12:55 9.6 °F 8.2 °F 1031.0 in West 6.4 mph 8.0 mph 91 % 0.0 in
13:01 9.6 °F 8.2 °F 1031.0 in West 7.9 mph 9.7 mph 91 % 0.0 in
13:07 9.5 °F 8.1 °F 1031.0 in WSW 4.7 mph 9.7 mph 91 % 0.0 in
13:13 9.5 °F 8.1 °F 1031.0 in WSW 3.2 mph 8.0 mph 91 % 0.0 in
13:19 9.5 °F 8.1 °F 1031.0 in West 1.4 mph 4.8 mph 91 % 0.0 in
13:25 9.6 °F 8.4 °F 1030.7 in WSW 4.7 mph 6.4 mph 92 % 0.0 in
13:31 9.6 °F 8.4 °F 1030.7 in SW 4.7 mph 6.4 mph 92 % 0.0 in
13:37 9.5 °F 8.3 °F 1030.7 in WSW 4.7 mph 6.4 mph 92 % 0.0 in
13:43 9.6 °F 8.2 °F 1030.4 in West 4.7 mph 9.7 mph 91 % 0.0 in
13:49 9.7 °F 8.3 °F 1030.4 in West 3.2 mph 8.0 mph 91 % 0.0 in
13:55 9.6 °F 8.2 °F 1030.4 in WNW 1.4 mph 9.7 mph 91 % 0.0 in
14:01 9.6 °F 8.2 °F 1030.4 in West 3.2 mph 11.3 mph 91 % 0.0 in
14:07 9.5 °F 8.1 °F 1030.0 in West 7.9 mph 8.0 mph 91 % 0.0 in
14:13 9.5 °F 8.1 °F 1030.0 in West 4.7 mph 8.0 mph 91 % 0.0 in
14:19 9.6 °F 8.2 °F 1030.0 in WSW 6.4 mph 6.4 mph 91 % 0.0 in
14:25 9.5 °F 8.3 °F 1030.0 in West 6.4 mph 8.0 mph 92 % 0.0 in
14:31 9.5 °F 8.3 °F 1030.0 in WSW 1.4 mph 9.7 mph 92 % 0.0 in
14:37 9.5 °F 8.1 °F 1029.7 in West 3.2 mph 6.4 mph 91 % 0.0 in
14:43 9.6 °F 8.4 °F 1029.7 in West 1.4 mph 3.2 mph 92 % 0.0 in
14:49 9.7 °F 8.5 °F 1029.7 in West 3.2 mph 3.2 mph 92 % 0.0 in
14:55 9.7 °F 8.3 °F 1029.7 in SW 3.2 mph 4.8 mph 91 % 0.0 in
15:01 9.8 °F 8.4 °F 1029.3 in West 3.2 mph 3.2 mph 91 % 0.0 in
15:07 9.8 °F 8.4 °F 1029.3 in West 3.2 mph 6.4 mph 91 % 0.0 in
15:13 9.8 °F 8.4 °F 1029.3 in WSW 1.4 mph 6.4 mph 91 % 0.0 in
15:19 9.8 °F 8.4 °F 1029.3 in West 4.7 mph 6.4 mph 91 % 0.0 in
15:25 9.8 °F 8.4 °F 1029.3 in WSW 6.4 mph 9.7 mph 91 % 0.0 in
15:31 9.7 °F 8.3 °F 1029.3 in West 6.4 mph 6.4 mph 91 % 0.0 in
15:37 9.7 °F 8.3 °F 1029.3 in SW 6.4 mph 9.7 mph 91 % 0.0 in
15:43 9.6 °F 8.0 °F 1029.3 in WSW 3.2 mph 9.7 mph 90 % 0.0 in
15:49 9.6 °F 8.2 °F 1029.3 in WSW 4.7 mph 8.0 mph 91 % 0.0 in
15:55 9.6 °F 8.2 °F 1029.3 in WSW 1.4 mph 3.2 mph 91 % 0.0 in
16:02 9.6 °F 8.2 °F 1029.0 in WSW 1.4 mph 4.8 mph 91 % 0.0 in
16:08 9.7 °F 8.3 °F 1029.3 in West 4.7 mph 8.0 mph 91 % 0.0 in
16:14 9.7 °F 8.3 °F 1029.3 in West 6.4 mph 8.0 mph 91 % 0.0 in
16:20 9.7 °F 8.3 °F 1029.0 in West 4.7 mph 6.4 mph 91 % 0.0 in
16:26 9.7 °F 8.3 °F 1029.0 in WNW 1.4 mph 6.4 mph 91 % 0.0 in
16:32 9.7 °F 8.3 °F 1029.0 in WSW 4.7 mph 4.8 mph 91 % 0.0 in
16:38 9.7 °F 8.3 °F 1029.0 in West 3.2 mph 8.0 mph 91 % 0.0 in
16:44 9.7 °F 8.3 °F 1029.0 in West 6.4 mph 8.0 mph 91 % 0.0 in
16:50 9.6 °F 8.2 °F 1028.7 in West 1.4 mph 3.2 mph 91 % 0.0 in
16:56 9.6 °F 8.2 °F 1028.7 in Calm   4.8 mph 91 % 0.0 in
17:02 9.5 °F 8.3 °F 1028.7 in West 1.4 mph 4.8 mph 92 % 0.0 in
17:08 9.5 °F 8.3 °F 1028.7 in West 1.4 mph 4.8 mph 92 % 0.0 in
17:14 9.4 °F 8.2 °F 1028.7 in Calm   1.6 mph 92 % 0.0 in
17:20 9.4 °F 8.2 °F 1028.3 in WSW 3.2 mph 3.2 mph 92 % 0.0 in
17:26 9.4 °F 8.3 °F 1028.3 in SW 3.2 mph 4.8 mph 93 % 0.0 in
17:32 9.4 °F 8.3 °F 1028.3 in SW 4.7 mph 4.8 mph 93 % 0.0 in
17:38 9.3 °F 8.2 °F 1028.3 in SSW 3.2 mph 3.2 mph 93 % 0.0 in
17:44 9.3 °F 8.4 °F 1028.3 in SW 1.4 mph 3.2 mph 94 % 0.0 in
17:50 9.2 °F 8.3 °F 1028.3 in SW 3.2 mph 4.8 mph 94 % 0.0 in
17:56 9.2 °F 8.3 °F 1028.3 in WSW 1.4 mph 3.2 mph 94 % 0.0 in
18:02 9.2 °F 8.3 °F 1028.0 in SW 3.2 mph 4.8 mph 94 % 0.0 in
18:08 9.2 °F 8.3 °F 1028.0 in SW 3.2 mph 4.8 mph 94 % 0.0 in
18:14 9.1 °F 8.2 °F 1028.0 in SW 3.2 mph 6.4 mph 94 % 0.0 in
18:20 9.1 °F 8.2 °F 1028.0 in South 4.7 mph 6.4 mph 94 % 0.0 in
18:26 9.0 °F 8.1 °F 1028.0 in SW 3.2 mph 6.4 mph 94 % 0.0 in
18:32 8.9 °F 8.1 °F 1028.0 in West 1.4 mph 4.8 mph 95 % 0.0 in
18:38 8.9 °F 8.0 °F 1028.0 in SSW 3.2 mph 6.4 mph 94 % 0.0 in
18:44 8.8 °F 7.9 °F 1028.0 in SW 3.2 mph 8.0 mph 94 % 0.0 in
18:50 8.8 °F 7.9 °F 1028.3 in WSW 4.7 mph 6.4 mph 94 % 0.0 in
18:56 8.8 °F 7.9 °F 1028.3 in SW 3.2 mph 6.4 mph 94 % 0.0 in
19:02 8.8 °F 7.9 °F 1028.3 in SW 1.4 mph 3.2 mph 94 % 0.0 in
19:08 8.7 °F 7.9 °F 1028.3 in SW 3.2 mph 4.8 mph 95 % 0.0 in
19:14 8.7 °F 7.9 °F 1028.3 in SW 1.4 mph 3.2 mph 95 % 0.0 in
19:20 8.7 °F 7.9 °F 1028.0 in SW 1.4 mph 3.2 mph 95 % 0.0 in
19:26 8.7 °F 7.9 °F 1028.3 in SSW 1.4 mph 4.8 mph 95 % 0.0 in
19:32 8.7 °F 7.9 °F 1028.0 in SW 4.7 mph 6.4 mph 95 % 0.0 in
19:38 8.7 °F 7.9 °F 1028.0 in SW 3.2 mph 4.8 mph 95 % 0.0 in
19:44 8.7 °F 7.9 °F 1028.0 in WSW 4.7 mph 6.4 mph 95 % 0.0 in
19:50 8.7 °F 7.9 °F 1028.0 in WSW 1.4 mph 3.2 mph 95 % 0.0 in
19:57 8.7 °F 7.9 °F 1028.0 in SW 1.4 mph 4.8 mph 95 % 0.0 in
20:03 8.7 °F 7.9 °F 1028.0 in SW 1.4 mph 3.2 mph 95 % 0.0 in
20:09 8.6 °F 7.8 °F 1028.0 in Calm   1.6 mph 95 % 0.0 in
20:15 8.6 °F 7.8 °F 1028.0 in Calm   1.6 mph 95 % 0.0 in
20:21 8.6 °F 7.8 °F 1028.0 in Calm   4.8 mph 95 % 0.0 in
20:27 8.6 °F 7.8 °F 1028.0 in SW 3.2 mph 3.2 mph 95 % 0.0 in
20:33 8.6 °F 7.8 °F 1027.7 in SW 1.4 mph 3.2 mph 95 % 0.0 in
20:39 8.6 °F 7.8 °F 1027.7 in SW 3.2 mph 4.8 mph 95 % 0.0 in
20:45 8.6 °F 7.7 °F 1027.7 in WNW 3.2 mph 6.4 mph 94 % 0.0 in
20:51 8.6 °F 7.7 °F 1027.7 in WSW 1.4 mph 3.2 mph 94 % 0.0 in
20:57 8.6 °F 7.7 °F 1027.7 in Calm   1.6 mph 94 % 0.0 in
21:03 8.6 °F 7.7 °F 1027.7 in Calm   1.6 mph 94 % 0.0 in
21:09 8.5 °F 7.6 °F 1027.7 in Calm     94 % 0.0 in
21:15 8.6 °F 7.7 °F 1027.7 in Calm   1.6 mph 94 % 0.0 in
21:21 8.6 °F 7.7 °F 1027.7 in SW 1.4 mph 4.8 mph 94 % 0.0 in
21:27 8.6 °F 7.7 °F 1027.7 in West 4.7 mph 8.0 mph 94 % 0.0 in
21:33 8.6 °F 7.7 °F 1027.7 in SW 3.2 mph 3.2 mph 94 % 0.0 in
21:39 8.6 °F 7.7 °F 1027.7 in SW 4.7 mph 9.7 mph 94 % 0.0 in
21:45 8.7 °F 7.8 °F 1027.7 in SW 3.2 mph 6.4 mph 94 % 0.0 in
21:51 8.6 °F 7.7 °F 1027.7 in West 3.2 mph 4.8 mph 94 % 0.0 in
21:57 8.6 °F 7.7 °F 1027.7 in WSW 1.4 mph 6.4 mph 94 % 0.0 in
22:03 8.6 °F 7.5 °F 1027.7 in SW 9.7 mph 9.7 mph 93 % 0.0 in
22:09 8.6 °F 7.5 °F 1027.3 in WSW 6.4 mph 9.7 mph 93 % 0.0 in
22:15 8.6 °F 7.5 °F 1027.3 in WSW 4.7 mph 8.0 mph 93 % 0.0 in
22:21 8.6 °F 7.5 °F 1027.3 in WSW 1.4 mph 4.8 mph 93 % 0.0 in
22:27 8.6 °F 7.5 °F 1027.3 in WSW 6.4 mph 12.9 mph 93 % 0.0 in
22:33 8.6 °F 7.4 °F 1027.3 in WSW 6.4 mph 9.7 mph 92 % 0.0 in
22:39 8.6 °F 7.4 °F 1027.3 in SSW 3.2 mph 4.8 mph 92 % 0.0 in
22:45 8.6 °F 7.4 °F 1027.3 in WSW 4.7 mph 6.4 mph 92 % 0.0 in
22:51 8.6 °F 7.4 °F 1027.3 in West 4.7 mph 9.7 mph 92 % 0.0 in
22:57 8.6 °F 7.4 °F 1027.3 in WSW 6.4 mph 9.7 mph 92 % 0.0 in
23:03 8.6 °F 7.4 °F 1027.0 in WNW 7.9 mph 12.9 mph 92 % 0.0 in
23:09 8.6 °F 7.4 °F 1027.0 in West 14.3 mph 16.1 mph 92 % 0.0 in
23:15 8.6 °F 7.4 °F 1027.0 in WSW 6.4 mph 11.3 mph 92 % 0.0 in
23:21 8.6 °F 7.4 °F 1027.0 in West 6.4 mph 11.3 mph 92 % 0.0 in
23:27 8.6 °F 7.2 °F 1027.0 in WSW 7.9 mph 9.7 mph 91 % 0.0 in
23:33 8.6 °F 7.2 °F 1026.6 in West 4.7 mph 9.7 mph 91 % 0.0 in
23:39 8.6 °F 7.2 °F 1026.6 in West 3.2 mph 9.7 mph 91 % 0.0 in
23:45 8.6 °F 7.4 °F 1026.6 in SW 4.7 mph 8.0 mph 92 % 0.0 in
23:51 8.5 °F 7.3 °F 1026.6 in WSW 6.4 mph 11.3 mph 92 % 0.0 in
23:57 8.4 °F 7.2 °F 1026.6 in SW 1.4 mph 6.4 mph 92 % 0.0 in
Meteo18
Compliments of Weather Underground - 4 mb

Script developed by  Jim McMurry - jmcmurry@mwt.net Adapted for the template by  Wim van der Kuil - Leuven-Template.eu

You find our weather info also at:

European Weather Network

Weather Underground

Equipment we use:

Weather-station
Davis Vue

Weather-program
Meteobridge

Weather-server
Raspberry PI 2 B+

Provider
1 and 1

Davis Vue

Meteobridge

Raspberry PI 2 B+

1 and 1